Time;durP1;ratioP1;P1;durP2;ratioP2;P2;SDS_P1;SDS_P2;PMS_P1;PMS_P2;Temp;Humidity;BMP_temperature;BMP_pressure;BME280_temperature;BME280_humidity;BME280_pressure;Samples;Min_cycle;Max_cycle;Signal;HPM_P1;HPM_P2
2023/08/25 00:00:44;;;;;;;7.57;5.63;;;22.70;97.90;;;;;;5194986;28;20041;-67
2023/08/25 00:03:18;;;;;;;6.95;5.45;;;22.70;99.90;;;;;;5225355;28;20038;-68
2023/08/25 00:05:53;;;;;;;12.30;6.47;;;22.70;99.90;;;;;;5218008;28;20050;-69
2023/08/25 00:08:25;;;;;;;7.18;5.93;;;22.60;99.90;;;;;;5239763;28;20031;-68
2023/08/25 00:10:57;;;;;;;8.00;6.20;;;22.60;99.90;;;;;;5236433;28;20047;-68
2023/08/25 00:13:28;;;;;;;7.90;6.13;;;22.60;99.90;;;;;;5220265;28;20055;-69
2023/08/25 00:16:03;;;;;;;8.02;6.07;;;22.60;99.90;;;;;;5234745;28;20043;-68
2023/08/25 00:18:35;;;;;;;7.45;5.70;;;22.70;99.90;;;;;;5192024;28;20049;-67
2023/08/25 00:21:10;;;;;;;8.15;5.15;;;23.10;99.90;;;;;;5231432;28;20043;-66
2023/08/25 00:23:44;;;;;;;6.13;4.10;;;24.10;1.00;;;;;;5212547;28;20049;-66
2023/08/25 00:26:22;;;;;;;4.22;2.83;;;24.60;1.00;;;;;;5209018;28;20043;-67
2023/08/25 00:28:56;;;;;;;2.30;2.03;;;24.60;1.00;;;;;;5219407;28;20036;-66
2023/08/25 00:31:30;;;;;;;2.10;1.90;;;24.60;99.90;;;;;;5204067;28;20051;-67
2023/08/25 00:34:06;;;;;;;3.30;1.27;;;24.50;1.00;;;;;;5232933;28;20040;-65
2023/08/25 00:36:37;;;;;;;3.08;1.27;;;24.50;1.00;;;;;;5134452;28;20049;-66
2023/08/25 00:39:10;;;;;;;0.80;0.80;;;24.50;99.90;;;;;;5155185;28;20053;-66
2023/08/25 00:41:44;;;;;;;0.80;0.80;;;24.40;52.40;;;;;;5132776;28;20045;-66
2023/08/25 00:44:15;;;;;;;1.00;0.90;;;24.40;1.00;;;;;;5225616;28;20053;-65
2023/08/25 00:46:53;;;;;;;1.67;0.80;;;24.30;1.00;;;;;;5211985;28;20031;-66
2023/08/25 00:49:27;;;;;;;0.60;0.60;;;24.30;1.00;;;;;;5219190;28;20049;-66
2023/08/25 00:52:04;;;;;;;0.70;0.70;;;24.30;1.00;;;;;;5219480;28;20029;-67
2023/08/25 00:54:37;;;;;;;2.58;0.70;;;24.30;1.00;;;;;;5207743;28;20033;-65
2023/08/25 00:57:08;;;;;;;1.27;0.77;;;24.30;1.00;;;;;;5212958;28;20070;-65
2023/08/25 00:59:45;;;;;;;1.48;0.80;;;24.20;1.00;;;;;;5195125;28;20041;-67
2023/08/25 01:02:16;;;;;;;1.08;0.90;;;24.20;1.00;;;;;;5252849;22;20054;-67
2023/08/25 01:04:56;;;;;;;0.77;0.77;;;24.20;1.00;;;;;;5094508;29;20250;-68
2023/08/25 01:07:27;;;;;;;1.45;0.80;;;24.20;99.90;;;;;;5108964;28;20030;-68
2023/08/25 01:09:59;;;;;;;3.67;0.82;;;24.10;99.90;;;;;;5102597;28;20247;-67
2023/08/25 01:12:43;;;;;;;2.10;0.65;;;24.10;99.90;;;;;;5091237;28;20051;-68
2023/08/25 01:15:32;;;;;;;1.75;0.82;;;24.00;99.90;;;;;;5100981;28;20168;-67
2023/08/25 01:18:17;;;;;;;2.15;1.27;;;24.00;99.90;;;;;;5155035;28;20051;-68
2023/08/25 01:20:50;;;;;;;2.83;1.00;;;24.00;99.90;;;;;;5099877;28;20071;-68
2023/08/25 01:23:38;;;;;;;;;;;24.00;99.90;;;;;;5077680;29;20039;-69
2023/08/25 01:26:11;;;;;;;1.08;0.75;;;24.00;99.90;;;;;;5107099;28;20167;-68
2023/08/25 01:28:42;;;;;;;0.80;0.80;;;24.10;99.90;;;;;;5174435;28;20044;-67
2023/08/25 01:31:14;;;;;;;0.88;0.70;;;24.10;99.90;;;;;;5090930;29;20039;-68
2023/08/25 01:33:48;;;;;;;1.05;0.70;;;24.20;36.90;;;;;;5094118;29;20061;-68
2023/08/25 01:36:53;;;;;;;1.02;0.95;;;24.20;1.00;;;;;;5097108;29;20043;-67
2023/08/25 01:39:28;;;;;;;1.85;1.10;;;24.30;1.00;;;;;;5124401;28;20620;-67
2023/08/25 01:42:05;;;;;;;1.10;1.00;;;24.30;1.00;;;;;;5087261;28;20059;-68
2023/08/25 01:44:39;;;;;;;0.52;0.52;;;24.30;1.00;;;;;;5079857;28;20047;-68
2023/08/25 01:47:20;;;;;;;;;;;24.40;1.00;;;;;;5107183;28;20046;-67
2023/08/25 01:49:53;;;;;;;2.15;0.85;;;24.60;1.00;;;;;;5161364;28;19921;-67
2023/08/25 01:52:28;;;;;;;0.77;0.50;;;24.60;1.00;;;;;;5087518;28;20104;-67
2023/08/25 01:55:02;;;;;;;3.72;0.90;;;24.60;1.00;;;;;;5070187;28;20048;-68
2023/08/25 01:57:42;;;;;;;1.00;0.70;;;24.70;1.00;;;;;;5140652;28;20043;-68
2023/08/25 02:00:19;;;;;;;1.00;0.90;;;24.60;1.00;;;;;;5067268;28;20268;-69
2023/08/25 02:02:51;;;;;;;0.98;0.90;;;24.60;1.00;;;;;;5085882;28;20062;-68
2023/08/25 02:05:28;;;;;;;1.75;0.70;;;24.60;1.00;;;;;;5081906;28;20103;-68
2023/08/25 02:08:01;;;;;;;0.50;0.50;;;24.60;1.00;;;;;;5120868;28;20055;-67
2023/08/25 02:10:35;;;;;;;0.80;0.80;;;24.40;1.00;;;;;;5064070;28;20103;-68
2023/08/25 02:13:08;;;;;;;1.50;1.40;;;24.40;1.00;;;;;;5089437;29;20028;-68
2023/08/25 02:15:49;;;;;;;0.88;0.88;;;24.30;1.00;;;;;;5076255;28;20043;-66
2023/08/25 02:18:23;;;;;;;0.70;0.70;;;24.20;1.00;;;;;;5069736;28;20040;-68
2023/08/25 02:20:58;;;;;;;1.05;0.90;;;24.10;1.00;;;;;;5094505;28;20054;-65
2023/08/25 02:23:29;;;;;;;1.55;0.98;;;24.00;1.00;;;;;;5061276;29;20055;-66
2023/08/25 02:26:03;;;;;;;0.80;0.80;;;23.80;1.00;;;;;;5084537;28;20048;-67
2023/08/25 02:28:39;;;;;;;1.58;1.05;;;23.70;1.00;;;;;;5098433;29;20039;-70
2023/08/25 02:31:14;;;;;;;0.90;0.80;;;23.60;1.00;;;;;;5148172;28;20039;-67
2023/08/25 02:33:50;;;;;;;2.15;1.05;;;23.60;1.00;;;;;;5093637;28;20039;-67
2023/08/25 02:36:22;;;;;;;1.55;0.93;;;23.60;1.00;;;;;;5099397;29;20051;-67
2023/08/25 02:38:56;;;;;;;0.90;0.90;;;23.50;1.00;;;;;;5068423;28;20051;-66
2023/08/25 02:41:27;;;;;;;1.30;1.20;;;23.50;1.00;;;;;;5098059;28;20059;-68
2023/08/25 02:44:00;;;;;;;1.85;0.80;;;23.40;1.00;;;;;;5131755;28;20042;-66
2023/08/25 02:46:37;;;;;;;1.10;1.02;;;23.30;25.60;;;;;;5145182;28;20641;-68
2023/08/25 02:49:09;;;;;;;0.95;0.93;;;23.30;99.90;;;;;;5089971;28;20046;-68
2023/08/25 02:51:40;;;;;;;0.80;0.80;;;23.30;99.90;;;;;;5076158;28;20048;-68
2023/08/25 02:54:12;;;;;;;1.38;1.00;;;23.20;99.90;;;;;;5104033;28;20042;-68
2023/08/25 02:56:44;;;;;;;1.90;0.80;;;23.30;99.90;;;;;;5100013;28;20035;-68
2023/08/25 02:59:20;;;;;;;1.13;0.80;;;23.30;99.90;;;;;;5076972;28;20059;-69
2023/08/25 03:01:51;;;;;;;1.10;1.00;;;23.30;99.90;;;;;;5079159;29;20058;-70
2023/08/25 03:04:25;;;;;;;0.77;0.75;;;23.30;99.90;;;;;;5072081;28;20057;-68
2023/08/25 03:06:57;;;;;;;2.05;1.17;;;23.40;99.90;;;;;;5094908;29;20039;-68
2023/08/25 03:09:28;;;;;;;0.73;0.73;;;23.40;99.90;;;;;;5100697;28;20399;-69
2023/08/25 03:12:00;;;;;;;0.77;0.65;;;23.40;99.90;;;;;;5099760;28;20048;-68
2023/08/25 03:14:33;;;;;;;1.17;0.90;;;23.50;99.90;;;;;;5099359;29;20038;-68
2023/08/25 03:17:05;;;;;;;1.08;0.98;;;23.40;99.90;;;;;;5146811;28;20047;-68
2023/08/25 03:19:41;;;;;;;1.10;0.80;;;23.40;99.90;;;;;;5083237;29;20055;-68
2023/08/25 03:22:13;;;;;;;1.10;1.00;;;23.30;99.90;;;;;;5155774;28;20045;-66
2023/08/25 03:24:47;;;;;;;1.00;0.90;;;23.30;99.90;;;;;;5101246;28;20126;-68
2023/08/25 03:27:19;;;;;;;0.90;0.90;;;23.40;99.90;;;;;;5062522;28;20444;-67
2023/08/25 03:29:51;;;;;;;3.13;0.70;;;23.50;99.90;;;;;;5064122;28;20043;-70
2023/08/25 03:32:22;;;;;;;0.70;0.70;;;23.50;99.90;;;;;;5087841;28;20540;-68
2023/08/25 03:34:55;;;;;;;0.75;0.55;;;23.50;99.90;;;;;;5086858;29;20044;-67
2023/08/25 03:37:31;;;;;;;0.80;0.80;;;23.50;99.90;;;;;;5066216;29;20054;-68
2023/08/25 03:40:11;;;;;;;0.93;0.70;;;23.50;99.90;;;;;;5082726;29;20039;-69
2023/08/25 03:42:47;;;;;;;1.85;0.90;;;23.50;99.90;;;;;;5064869;29;20047;-69
2023/08/25 03:45:19;;;;;;;2.70;1.05;;;23.50;99.90;;;;;;5077347;29;20056;-69
2023/08/25 03:47:51;;;;;;;2.35;0.80;;;23.40;99.90;;;;;;5081282;29;20046;-71
2023/08/25 03:50:24;;;;;;;0.70;0.70;;;23.40;99.90;;;;;;5083199;28;20050;-68
2023/08/25 03:52:55;;;;;;;1.33;0.75;;;23.40;99.90;;;;;;5083039;28;20050;-68
2023/08/25 03:55:35;;;;;;;0.90;0.90;;;23.30;99.90;;;;;;5090452;28;20035;-67
2023/08/25 03:58:07;;;;;;;1.83;1.50;;;23.30;99.90;;;;;;5067686;28;20039;-69
2023/08/25 04:00:39;;;;;;;0.77;0.77;;;23.20;1.00;;;;;;5079373;28;20028;-68
2023/08/25 04:03:13;;;;;;;2.25;1.02;;;23.10;1.00;;;;;;5080125;28;20046;-68
2023/08/25 04:05:50;;;;;;;1.60;0.95;;;23.00;1.00;;;;;;5063829;28;20040;-69
2023/08/25 04:08:23;;;;;;;1.35;0.98;;;22.90;99.90;;;;;;5063336;28;20048;-69
2023/08/25 04:10:58;;;;;;;0.85;0.80;;;22.90;99.90;;;;;;5094896;28;20347;-68
2023/08/25 04:13:34;;;;;;;3.03;0.90;;;22.90;1.00;;;;;;5126281;28;20051;-68
2023/08/25 04:16:05;;;;;;;0.73;0.73;;;22.80;1.00;;;;;;5065180;28;20047;-69
2023/08/25 04:18:37;;;;;;;1.73;1.00;;;22.70;1.00;;;;;;5114154;28;20035;-68
2023/08/25 04:21:11;;;;;;;1.23;1.00;;;22.80;1.00;;;;;;5084552;28;20048;-67
2023/08/25 04:23:42;;;;;;;2.42;1.00;;;22.80;1.00;;;;;;5083084;29;20035;-69
2023/08/25 04:26:20;;;;;;;3.10;1.05;;;22.70;1.00;;;;;;5100782;29;20035;-68
2023/08/25 04:29:02;;;;;;;2.67;1.00;;;22.80;1.00;;;;;;5080237;29;20043;-69
2023/08/25 04:31:33;;;;;;;1.08;0.98;;;22.70;64.50;;;;;;5079491;28;20070;-69
2023/08/25 04:34:05;;;;;;;1.42;1.33;;;22.70;54.10;;;;;;5096533;29;20078;-69
2023/08/25 04:36:45;;;;;;;1.10;1.00;;;22.70;99.90;;;;;;5081703;29;20044;-69
2023/08/25 04:39:20;;;;;;;1.40;0.95;;;22.60;99.90;;;;;;5080971;29;20035;-68
2023/08/25 04:41:52;;;;;;;0.98;0.90;;;22.70;99.90;;;;;;5096021;28;20030;-69
2023/08/25 04:44:29;;;;;;;0.90;0.80;;;22.60;1.00;;;;;;5083977;29;20043;-67
2023/08/25 04:47:02;;;;;;;3.63;1.17;;;22.60;1.00;;;;;;5100295;28;20050;-68
2023/08/25 04:49:36;;;;;;;0.95;0.85;;;22.50;1.00;;;;;;5101066;29;20061;-68
2023/08/25 04:52:08;;;;;;;1.20;0.93;;;22.40;1.00;;;;;;5101073;28;20039;-69
2023/08/25 04:54:40;;;;;;;1.02;0.93;;;22.50;1.00;;;;;;5084923;29;20062;-68
2023/08/25 04:57:17;;;;;;;1.80;0.95;;;22.50;99.90;;;;;;5088280;28;20052;-68
2023/08/25 04:59:49;;;;;;;3.10;1.17;;;22.60;1.00;;;;;;5063337;29;20206;-68
2023/08/25 05:02:23;;;;;;;1.17;1.08;;;22.60;1.00;;;;;;5100396;28;20409;-69
2023/08/25 05:04:55;;;;;;;0.90;0.80;;;22.70;1.00;;;;;;5080469;29;20050;-67
2023/08/25 05:07:27;;;;;;;1.38;1.10;;;22.70;1.00;;;;;;5099101;29;20047;-68
2023/08/25 05:10:03;;;;;;;2.60;1.17;;;22.70;1.00;;;;;;5115896;29;20400;-67
2023/08/25 05:12:42;;;;;;;0.80;0.80;;;22.60;1.00;;;;;;5102296;29;20466;-69
2023/08/25 05:15:16;;;;;;;0.85;0.85;;;22.70;1.00;;;;;;5078100;29;20099;-67
2023/08/25 05:17:50;;;;;;;2.10;1.20;;;22.70;1.00;;;;;;5080894;29;20043;-68
2023/08/25 05:20:22;;;;;;;1.80;1.30;;;22.70;1.00;;;;;;5095742;29;20051;-70
2023/08/25 05:22:57;;;;;;;1.42;0.90;;;22.70;1.00;;;;;;5077899;29;20526;-69
2023/08/25 05:25:37;;;;;;;3.65;1.25;;;22.80;1.00;;;;;;5087007;28;20044;-69
2023/08/25 05:28:11;;;;;;;1.65;1.23;;;22.80;1.00;;;;;;5089292;29;20043;-70
2023/08/25 05:30:51;;;;;;;2.35;1.30;;;22.80;1.00;;;;;;5094043;28;20043;-69
2023/08/25 05:33:28;;;;;;;1.92;0.95;;;22.80;1.00;;;;;;5057348;28;20236;-68
2023/08/25 05:36:02;;;;;;;1.58;1.13;;;22.80;1.00;;;;;;5084101;28;20046;-68
2023/08/25 05:38:34;;;;;;;1.20;1.10;;;22.80;1.00;;;;;;5080508;29;20233;-69
2023/08/25 05:41:11;;;;;;;5.13;1.30;;;22.80;1.00;;;;;;5076164;29;20050;-69
2023/08/25 05:43:43;;;;;;;1.70;1.08;;;22.90;1.00;;;;;;5095070;29;20040;-68
2023/08/25 05:46:17;;;;;;;1.20;1.10;;;23.00;1.00;;;;;;5076485;28;20058;-69
2023/08/25 05:48:57;;;;;;;1.92;1.10;;;23.00;1.00;;;;;;5079206;28;20348;-68
2023/08/25 05:51:30;;;;;;;4.30;1.10;;;23.10;1.00;;;;;;5092404;29;20040;-68
2023/08/25 05:54:04;;;;;;;1.00;0.90;;;23.00;1.00;;;;;;5079482;29;20028;-69
2023/08/25 05:56:39;;;;;;;2.10;1.20;;;23.10;1.00;;;;;;5071442;29;20574;-70
2023/08/25 05:59:14;;;;;;;1.23;1.13;;;23.20;1.00;;;;;;5068770;28;20047;-69
2023/08/25 06:01:46;;;;;;;2.78;0.85;;;23.30;99.90;;;;;;5074857;28;20036;-68
2023/08/25 06:04:20;;;;;;;1.20;0.90;;;23.40;99.90;;;;;;5097122;28;20059;-67
2023/08/25 06:06:54;;;;;;;4.20;1.95;;;23.40;99.90;;;;;;5070182;28;20057;-67
2023/08/25 06:09:26;;;;;;;1.20;1.10;;;23.50;1.50;;;;;;5063362;29;20058;-68
2023/08/25 06:11:59;;;;;;;2.38;1.00;;;23.60;90.40;;;;;;5092994;28;20032;-68
2023/08/25 06:14:31;;;;;;;2.53;1.03;;;23.60;99.90;;;;;;5082314;28;20046;-69
2023/08/25 06:17:02;;;;;;;1.27;1.17;;;23.60;97.10;;;;;;5080808;28;20043;-69
2023/08/25 06:19:36;;;;;;;1.42;1.30;;;23.60;99.90;;;;;;5063295;28;20047;-69
2023/08/25 06:22:10;;;;;;;3.10;1.40;;;23.60;99.90;;;;;;5070763;28;20055;-69
2023/08/25 06:24:45;;;;;;;3.30;1.83;;;23.60;1.00;;;;;;5071481;28;20043;-68
2023/08/25 06:27:18;;;;;;;2.40;1.40;;;23.50;1.00;;;;;;5082466;28;20211;-68
2023/08/25 06:29:49;;;;;;;4.15;1.63;;;23.50;1.00;;;;;;5099725;28;20362;-68
2023/08/25 06:32:28;;;;;;;2.88;1.75;;;23.60;1.00;;;;;;5116653;28;20456;-68
2023/08/25 06:34:59;;;;;;;1.50;1.40;;;24.00;1.00;;;;;;5071045;28;20047;-66
2023/08/25 06:37:31;;;;;;;2.95;1.80;;;24.40;99.90;;;;;;5097127;29;20345;-68
2023/08/25 06:40:08;;;;;;;3.92;1.40;;;24.80;1.00;;;;;;5041824;28;20066;-67
2023/08/25 06:42:42;;;;;;;3.58;1.52;;;25.30;1.00;;;;;;5084257;29;20044;-67
2023/08/25 06:45:19;;;;;;;1.88;1.60;;;25.70;1.00;;;;;;5081332;28;20110;-67
2023/08/25 06:47:51;;;;;;;1.48;1.27;;;26.10;99.90;;;;;;5082514;29;20663;-68
2023/08/25 06:50:24;;;;;;;1.50;1.35;;;26.30;99.90;;;;;;5078987;28;21253;-68
2023/08/25 06:52:56;;;;;;;3.80;2.17;;;26.60;99.90;;;;;;5059656;28;20048;-69
2023/08/25 06:55:29;;;;;;;3.75;2.38;;;27.00;1.00;;;;;;5081606;28;20057;-66
2023/08/25 06:58:05;;;;;;;3.67;2.35;;;27.20;1.00;;;;;;5056926;29;20499;-68
2023/08/25 07:00:39;;;;;;;3.58;2.20;;;27.40;1.00;;;;;;5135668;28;20048;-69
2023/08/25 07:03:11;;;;;;;4.35;2.13;;;27.80;1.00;;;;;;5122379;28;20074;-67
2023/08/25 07:05:42;;;;;;;2.38;2.00;;;27.90;1.00;;;;;;5073328;28;20055;-67
2023/08/25 07:08:14;;;;;;;4.25;2.03;;;28.10;1.00;;;;;;5075586;28;20062;-68
2023/08/25 07:10:50;;;;;;;2.70;2.00;;;28.30;99.90;;;;;;5152578;28;20063;-68
2023/08/25 07:13:21;;;;;;;5.43;1.77;;;28.50;99.90;;;;;;5057708;29;20047;-69
2023/08/25 07:15:58;;;;;;;2.70;2.05;;;28.60;1.00;;;;;;5048255;28;20055;-68
2023/08/25 07:18:32;;;;;;;2.58;1.58;;;28.80;1.00;;;;;;5099917;29;20032;-68
2023/08/25 07:21:14;;;;;;;3.78;1.60;;;29.00;1.00;;;;;;5148717;28;20315;-68
2023/08/25 07:23:50;;;;;;;2.05;1.67;;;29.00;99.90;;;;;;5064714;28;20057;-70
2023/08/25 07:26:27;;;;;;;5.40;1.90;;;28.70;99.90;;;;;;5094197;28;20039;-69
2023/08/25 07:28:58;;;;;;;2.00;1.80;;;28.70;48.60;;;;;;5082079;28;20610;-67
2023/08/25 07:31:32;;;;;;;1.88;1.48;;;28.30;99.90;;;;;;5049385;28;20055;-69
2023/08/25 07:34:03;;;;;;;2.47;1.90;;;28.20;50.30;;;;;;5043809;29;20055;-69
2023/08/25 07:36:35;;;;;;;2.70;1.85;;;28.50;99.90;;;;;;5073974;28;20059;-69
2023/08/25 07:39:07;;;;;;;11.63;2.10;;;28.70;34.40;;;;;;5067982;28;20036;-69
2023/08/25 07:41:41;;;;;;;2.17;1.70;;;28.90;99.90;;;;;;5066963;28;20344;-67
2023/08/25 07:44:15;;;;;;;3.28;2.03;;;29.10;99.90;;;;;;5080009;29;20065;-68
2023/08/25 07:46:52;;;;;;;3.80;1.85;;;29.40;99.90;;;;;;5115671;28;20047;-69
2023/08/25 07:49:24;;;;;;;1.70;1.60;;;29.50;52.20;;;;;;5078357;29;20273;-71
2023/08/25 07:51:55;;;;;;;3.08;1.90;;;29.70;99.90;;;;;;5081467;28;20032;-69
2023/08/25 07:54:28;;;;;;;3.83;2.50;;;29.90;42.30;;;;;;5073684;28;20039;-69
2023/08/25 07:57:00;;;;;;;2.92;1.88;;;30.20;99.90;;;;;;5083055;28;20035;-69
2023/08/25 07:59:32;;;;;;;2.83;1.75;;;30.10;25.50;;;;;;5062909;28;20040;-69
2023/08/25 08:02:03;;;;;;;3.63;2.08;;;30.00;99.90;;;;;;5077918;28;20043;-70
2023/08/25 08:04:35;;;;;;;4.70;2.13;;;30.00;99.90;;;;;;5067584;28;20052;-70
2023/08/25 08:07:07;;;;;;;8.27;2.58;;;30.10;99.90;;;;;;5095022;28;20050;-71
2023/08/25 08:09:41;;;;;;;3.28;2.10;;;30.30;99.90;;;;;;5064770;28;20051;-69
2023/08/25 08:12:12;;;;;;;3.22;2.40;;;30.60;99.90;;;;;;5077575;28;20441;-70
2023/08/25 08:14:44;;;;;;;3.08;2.40;;;31.00;1.70;;;;;;5065743;28;20354;-70
2023/08/25 08:17:15;;;;;;;4.50;2.40;;;31.20;1.00;;;;;;5077144;28;20072;-68
2023/08/25 08:19:48;;;;;;;3.20;2.47;;;30.90;1.00;;;;;;5129522;28;20064;-70
2023/08/25 08:22:21;;;;;;;5.80;2.67;;;31.10;1.00;;;;;;5093381;28;20058;-70
2023/08/25 08:24:53;;;;;;;2.65;2.35;;;31.30;1.00;;;;;;5136376;28;20210;-69
2023/08/25 08:27:25;;;;;;;4.18;2.30;;;31.20;1.00;;;;;;5093272;29;20042;-70
2023/08/25 08:29:56;;;;;;;3.15;2.30;;;30.90;1.00;;;;;;5068289;28;20240;-69
2023/08/25 08:32:28;;;;;;;3.50;2.42;;;31.10;1.00;;;;;;5073183;28;20055;-70
2023/08/25 08:34:59;;;;;;;5.28;2.65;;;31.30;1.00;;;;;;5049107;28;20043;-69
2023/08/25 08:37:31;;;;;;;3.85;2.28;;;31.30;1.00;;;;;;5093969;29;20047;-70
2023/08/25 08:40:10;;;;;;;3.20;2.03;;;31.10;1.00;;;;;;5068460;28;20051;-69
2023/08/25 08:42:45;;;;;;;4.72;2.50;;;31.00;1.00;;;;;;5064047;28;20048;-69
2023/08/25 08:45:17;;;;;;;3.50;2.22;;;31.10;1.00;;;;;;5048811;28;20339;-70
2023/08/25 08:47:52;;;;;;;3.97;2.40;;;31.00;1.00;;;;;;5078715;29;20071;-70
2023/08/25 08:50:23;;;;;;;7.03;2.50;;;30.90;1.00;;;;;;5104795;28;20529;-69
2023/08/25 08:52:57;;;;;;;4.78;2.45;;;30.90;1.00;;;;;;5083478;28;20122;-69
2023/08/25 08:55:31;;;;;;;4.75;2.28;;;31.00;1.00;;;;;;5074694;28;20054;-71
2023/08/25 08:58:03;;;;;;;2.42;2.20;;;31.20;1.00;;;;;;5092406;29;20916;-70
2023/08/25 09:00:35;;;;;;;5.13;2.60;;;31.50;1.00;;;;;;5063616;28;20061;-71
2023/08/25 09:03:17;;;;;;;3.85;2.40;;;31.50;1.00;;;;;;5076103;29;20054;-71
2023/08/25 09:05:52;;;;;;;4.25;2.40;;;31.30;1.00;;;;;;5050771;28;20057;-69
2023/08/25 09:08:25;;;;;;;6.88;2.80;;;31.50;1.00;;;;;;5075461;28;20047;-69
2023/08/25 09:11:00;;;;;;;3.67;2.50;;;31.80;1.00;;;;;;5085375;28;20067;-70
2023/08/25 09:13:33;;;;;;;5.35;2.63;;;32.00;1.00;;;;;;5094627;29;20039;-69
2023/08/25 09:16:12;;;;;;;3.78;2.50;;;32.20;1.00;;;;;;5064215;28;20046;-70
2023/08/25 09:18:46;;;;;;;5.03;2.13;;;32.20;1.00;;;;;;5094396;28;20509;-69
2023/08/25 09:21:20;;;;;;;4.30;2.60;;;32.20;1.00;;;;;;5071815;28;20066;-69
2023/08/25 09:24:01;;;;;;;4.80;2.65;;;32.50;1.00;;;;;;5076158;28;20357;-69
2023/08/25 09:26:37;;;;;;;4.20;2.60;;;32.50;1.00;;;;;;5101964;28;20046;-70
2023/08/25 09:29:10;;;;;;;3.65;2.60;;;32.80;1.00;;;;;;5061573;28;20040;-69
2023/08/25 09:31:43;;;;;;;6.63;2.63;;;33.10;99.90;;;;;;5077837;28;20599;-69
2023/08/25 09:34:15;;;;;;;6.47;2.85;;;33.70;1.00;;;;;;5150389;28;20134;-68
2023/08/25 09:36:54;;;;;;;3.70;2.47;;;33.80;99.90;;;;;;5077061;29;20043;-68
2023/08/25 09:39:25;;;;;;;3.25;2.08;;;34.30;99.90;;;;;;5072092;28;20055;-69
2023/08/25 09:42:06;;;;;;;5.53;2.70;;;34.00;99.90;;;;;;5092853;28;20047;-69
2023/08/25 09:44:39;;;;;;;3.22;2.33;;;34.10;99.90;;;;;;5051906;28;20043;-70
2023/08/25 09:47:12;;;;;;;4.22;1.70;;;33.90;99.90;;;;;;5076768;28;20082;-69
2023/08/25 09:49:44;;;;;;;4.10;2.30;;;33.90;99.90;;;;;;5060495;28;20714;-69
2023/08/25 09:52:17;;;;;;;3.97;2.05;;;33.50;75.40;;;;;;5061162;28;20288;-69
2023/08/25 09:54:49;;;;;;;2.10;1.50;;;33.70;99.00;;;;;;5055522;28;20043;-70
2023/08/25 09:57:23;;;;;;;2.65;2.00;;;33.70;1.00;;;;;;5091749;28;20043;-70
2023/08/25 09:59:56;;;;;;;1.80;1.70;;;33.90;1.00;;;;;;5068600;28;20055;-68
2023/08/25 10:02:27;;;;;;;3.85;1.90;;;34.20;1.00;;;;;;5059604;28;20050;-71
2023/08/25 10:05:04;;;;;;;4.75;2.20;;;34.60;1.00;;;;;;5064875;28;20052;-69
2023/08/25 10:07:36;;;;;;;2.30;2.10;;;34.80;1.00;;;;;;5049140;28;20043;-69
2023/08/25 10:10:09;;;;;;;4.13;2.22;;;35.50;53.70;;;;;;5051131;28;20044;-68
2023/08/25 10:12:46;;;;;;;6.72;2.17;;;36.10;1.00;;;;;;5067427;28;20078;-69
2023/08/25 10:15:19;;;;;;;2.40;2.15;;;37.00;1.00;;;;;;5121103;28;20882;-70
2023/08/25 10:17:53;;;;;;;4.63;2.42;;;36.60;1.00;;;;;;5055537;28;20201;-70
2023/08/25 10:20:28;;;;;;;4.55;2.53;;;36.80;1.00;;;;;;5093892;29;20048;-69
2023/08/25 10:23:08;;;;;;;4.43;2.17;;;36.80;1.00;;;;;;5083704;28;20143;-70
2023/08/25 10:25:41;;;;;;;3.72;2.10;;;37.20;1.00;;;;;;5124422;28;20040;-69
2023/08/25 10:28:13;;;;;;;3.40;2.60;;;37.80;1.00;;;;;;5117721;28;20052;-69
2023/08/25 10:30:50;;;;;;;3.22;2.20;;;37.30;1.00;;;;;;5059534;28;20043;-70
2023/08/25 10:33:43;;;;;;;5.25;2.20;;;38.00;1.00;;;;;;5086695;28;20035;-70
2023/08/25 10:36:22;;;;;;;2.80;2.25;;;38.40;1.00;;;;;;5075689;29;20039;-69
2023/08/25 10:39:03;;;;;;;5.00;2.55;;;39.00;1.00;;;;;;5074301;28;20043;-69
2023/08/25 10:41:46;;;;;;;5.80;2.80;;;38.40;1.00;;;;;;5131660;28;20050;-70
2023/08/25 10:44:31;;;;;;;5.20;2.53;;;38.40;1.00;;;;;;5087221;28;20051;-69
2023/08/25 10:47:03;;;;;;;4.45;2.47;;;38.40;1.00;;;;;;5076670;28;20044;-68
2023/08/25 10:49:38;;;;;;;3.58;2.80;;;38.10;1.00;;;;;;5081792;28;20039;-70
2023/08/25 10:52:19;;;;;;;6.15;2.33;;;38.70;99.90;;;;;;5161431;28;20027;-69
2023/08/25 10:54:54;;;;;;;8.73;2.55;;;39.60;99.90;;;;;;5144923;28;20527;-70
2023/08/25 10:57:31;;;;;;;4.63;2.40;;;40.50;99.90;;;;;;5078222;29;20042;-70
2023/08/25 11:00:33;;;;;;;2.42;2.20;;;40.50;99.90;;;;;;5078347;28;20051;-69
2023/08/25 11:03:05;;;;;;;2.90;2.30;;;41.50;99.90;;;;;;5146636;28;20042;-69
2023/08/25 11:05:37;;;;;;;5.13;2.13;;;41.80;1.00;;;;;;5092829;28;20469;-71
2023/08/25 11:08:28;;;;;;;3.10;2.28;;;42.20;99.90;;;;;;5081510;28;20303;-69
2023/08/25 11:11:17;;;;;;;4.28;2.30;;;41.80;99.90;;;;;;5089922;28;21146;-67
2023/08/25 11:13:56;;;;;;;3.53;2.55;;;41.70;99.90;;;;;;5081497;29;20047;-69
2023/08/25 11:16:28;;;;;;;7.10;2.60;;;42.30;99.90;;;;;;5070095;28;20051;-70
2023/08/25 11:18:59;;;;;;;2.75;2.30;;;41.90;99.90;;;;;;5097936;28;21283;-69
2023/08/25 11:21:31;;;;;;;4.25;2.25;;;41.70;99.90;;;;;;5089686;28;20028;-70
2023/08/25 11:24:03;;;;;;;2.78;2.38;;;42.50;1.00;;;;;;5065134;28;20044;-69
2023/08/25 11:26:40;;;;;;;3.13;1.98;;;41.60;99.90;;;;;;5082348;28;20035;-70
2023/08/25 11:29:11;;;;;;;3.10;2.53;;;42.90;1.00;;;;;;5063385;28;20872;-69
2023/08/25 11:31:46;;;;;;;3.50;2.50;;;43.50;1.00;;;;;;5073221;28;20047;-69
2023/08/25 11:34:17;;;;;;;6.03;2.20;;;43.50;1.00;;;;;;5079323;28;20043;-70
2023/08/25 11:36:51;;;;;;;2.95;2.40;;;43.80;1.00;;;;;;5081796;28;20055;-70
2023/08/25 11:39:26;;;;;;;2.65;2.45;;;43.00;69.50;;;;;;5078146;28;20501;-71
2023/08/25 11:42:01;;;;;;;1.95;1.77;;;42.80;1.00;;;;;;5089369;28;20047;-69
2023/08/25 11:44:45;;;;;;;3.83;1.92;;;42.90;1.00;;;;;;5079202;28;20039;-69
2023/08/25 11:47:22;;;;;;;2.58;2.10;;;43.00;1.00;;;;;;5058025;29;20332;-69
2023/08/25 11:49:54;;;;;;;5.20;2.00;;;43.60;1.00;;;;;;5076113;28;20069;-71
2023/08/25 11:52:25;;;;;;;2.20;2.03;;;44.70;1.00;;;;;;5073221;28;20557;-69
2023/08/25 11:54:57;;;;;;;2.28;1.92;;;44.40;1.00;;;;;;5076772;28;20052;-69
2023/08/25 11:57:37;;;;;;;3.25;2.00;;;43.40;1.00;;;;;;5078292;28;20465;-69
2023/08/25 12:00:10;;;;;;;2.40;2.20;;;43.60;1.00;;;;;;5074853;28;20053;-69
2023/08/25 12:02:56;;;;;;;2.53;2.30;;;43.40;99.90;;;;;;5076239;28;20052;-70
2023/08/25 12:05:31;;;;;;;3.67;2.08;;;43.70;1.00;;;;;;5060281;28;20048;-70
2023/08/25 12:08:03;;;;;;;3.03;2.38;;;43.80;56.90;;;;;;5094064;28;20040;-70
2023/08/25 12:10:39;;;;;;;3.50;2.10;;;44.10;1.00;;;;;;5079955;28;20054;-71
2023/08/25 12:13:13;;;;;;;4.80;2.42;;;43.90;99.90;;;;;;5093545;28;20040;-69
2023/08/25 12:15:47;;;;;;;2.80;2.58;;;44.00;99.90;;;;;;5144151;28;20047;-69
2023/08/25 12:18:20;;;;;;;2.90;2.30;;;43.60;1.00;;;;;;5139223;28;20050;-71
2023/08/25 12:20:52;;;;;;;2.60;2.40;;;43.10;1.00;;;;;;5098957;29;20036;-71
2023/08/25 12:23:23;;;;;;;3.45;1.83;;;42.60;1.00;;;;;;5145813;28;20440;-70
2023/08/25 12:26:01;;;;;;;2.42;1.90;;;43.50;1.00;;;;;;5077069;29;20047;-71
2023/08/25 12:28:33;;;;;;;4.32;2.55;;;44.10;1.00;;;;;;5142673;28;20047;-67
2023/08/25 12:31:08;;;;;;;4.22;2.35;;;44.60;1.00;;;;;;5090076;28;21126;-70
2023/08/25 12:33:42;;;;;;;2.72;2.33;;;44.30;1.00;;;;;;5153734;28;20044;-69
2023/08/25 12:36:14;;;;;;;2.80;1.98;;;44.90;1.00;;;;;;5080292;28;20043;-69
2023/08/25 12:38:45;;;;;;;2.90;2.28;;;44.50;1.00;;;;;;5143946;28;20048;-69
2023/08/25 12:41:17;;;;;;;3.38;2.30;;;44.30;1.00;;;;;;5086832;28;20052;-69
2023/08/25 12:43:51;;;;;;;2.30;2.10;;;44.90;1.00;;;;;;5055209;28;20055;-70
2023/08/25 12:46:23;;;;;;;2.58;2.20;;;44.80;56.20;;;;;;5130088;28;20058;-69
2023/08/25 12:48:57;;;;;;;4.35;2.17;;;45.10;1.00;;;;;;5080130;28;20047;-70
2023/08/25 12:51:32;;;;;;;2.20;2.00;;;45.00;1.00;;;;;;5073513;28;20053;-69
2023/08/25 12:54:14;;;;;;;4.18;2.30;;;45.90;1.00;;;;;;5110445;28;20318;-69
2023/08/25 12:56:53;;;;;;;3.30;2.28;;;45.70;1.00;;;;;;5088621;28;20495;-69
2023/08/25 12:59:32;;;;;;;4.45;2.17;;;44.70;1.00;;;;;;5070768;28;20564;-70
2023/08/25 13:02:04;;;;;;;7.90;2.35;;;44.40;1.00;;;;;;5076010;28;20253;-70
2023/08/25 13:04:38;;;;;;;2.42;2.22;;;45.00;1.00;;;;;;5080802;28;20039;-69
2023/08/25 13:07:12;;;;;;;1.92;1.77;;;45.30;38.00;;;;;;5099589;29;20319;-68
2023/08/25 13:09:48;;;;;;;3.65;2.10;;;44.40;23.40;;;;;;5094012;28;20047;-70
2023/08/25 13:12:21;;;;;;;3.30;2.00;;;44.30;58.70;;;;;;5079185;29;20031;-69
2023/08/25 13:14:52;;;;;;;2.10;1.90;;;43.80;1.00;;;;;;5080900;28;20040;-69
2023/08/25 13:17:32;;;;;;;2.78;1.75;;;43.30;1.00;;;;;;5155092;28;20286;-70
2023/08/25 13:20:05;;;;;;;2.08;1.98;;;43.20;1.00;;;;;;5093711;28;20038;-68
2023/08/25 13:22:39;;;;;;;2.88;1.90;;;43.50;99.90;;;;;;5063815;28;20044;-69
2023/08/25 13:25:16;;;;;;;2.63;2.30;;;44.00;99.90;;;;;;5077369;28;20567;-69
2023/08/25 13:27:48;;;;;;;3.00;1.95;;;43.90;1.00;;;;;;5071750;28;20044;-67
2023/08/25 13:30:30;;;;;;;1.98;1.80;;;42.40;1.00;;;;;;5070038;28;20056;-67